Time;durP1;ratioP1;P1;durP2;ratioP2;P2;SDS_P1;SDS_P2;PMS_P1;PMS_P2;Temp;Humidity;BMP_temperature;BMP_pressure;BME280_temperature;BME280_humidity;BME280_pressure;Samples;Min_cycle;Max_cycle;Signal;HPM_P1;HPM_P2
2021/04/17 00:00:48;;;;;;;11.6;6.599999;;;;;;;-0.81;72.27832;95610.71;;;;
2021/04/17 00:01:48;;;;;;;11.6;6.599999;;;;;;;-0.81;72.27832;95610.71;;;;
2021/04/17 00:02:49;;;;;;;11.6;6.599999;;;;;;;-0.81;72.27832;95610.71;;;;
2021/04/17 00:03:50;;;;;;;9.8;6.900001;;;;;;;-0.79;72.46777;95614.93;;;;
2021/04/17 00:04:50;;;;;;;9.8;6.900001;;;;;;;-0.79;72.46777;95614.93;;;;
2021/04/17 00:05:51;;;;;;;9.8;6.900001;;;;;;;-0.79;72.46777;95614.93;;;;
2021/04/17 00:06:52;;;;;;;9.8;6.900001;;;;;;;-0.79;72.46777;95614.93;;;;
2021/04/17 00:07:52;;;;;;;9.8;6.900001;;;;;;;-0.79;72.46777;95614.93;;;;
2021/04/17 00:08:54;;;;;;;9.8;6.900001;;;;;;;-0.79;72.46777;95614.93;;;;
2021/04/17 00:09:55;;;;;;;9.8;6.900001;;;;;;;-0.79;72.46777;95614.93;;;;
2021/04/17 00:10:55;;;;;;;9.8;6.900001;;;;;;;-0.79;72.46777;95614.93;;;;
2021/04/17 00:11:56;;;;;;;9.8;6.900001;;;;;;;-0.79;72.46777;95614.93;;;;
2021/04/17 00:13:00;;;;;;;9.8;6.900001;;;;;;;-0.79;72.46777;95614.93;;;;
2021/04/17 00:14:01;;;;;;;10.15;7.050001;;;;;;;-0.76;72.66309;95603.52;;;;
2021/04/17 00:15:05;;;;;;;10.15;7.050001;;;;;;;-0.76;72.66309;95603.52;;;;
2021/04/17 00:16:07;;;;;;;10.15;7.050001;;;;;;;-0.76;72.66309;95603.52;;;;
2021/04/17 00:17:07;;;;;;;10.15;7.050001;;;;;;;-0.76;72.66309;95603.52;;;;
2021/04/17 00:18:08;;;;;;;10.15;7.050001;;;;;;;-0.76;72.66309;95603.52;;;;
2021/04/17 00:19:09;;;;;;;10.15;7.050001;;;;;;;-0.76;72.66309;95603.52;;;;
2021/04/17 00:20:10;;;;;;;10.15;7.050001;;;;;;;-0.76;72.66309;95603.52;;;;
2021/04/17 00:21:11;;;;;;;10.15;7.050001;;;;;;;-0.76;72.66309;95603.52;;;;
2021/04/17 00:22:13;;;;;;;10.15;7.050001;;;;;;;-0.76;72.66309;95603.52;;;;
2021/04/17 00:23:14;;;;;;;10.15;7.050001;;;;;;;-0.76;72.66309;95603.52;;;;
2021/04/17 00:24:15;;;;;;;10.15;7.050001;;;;;;;-0.76;72.66309;95603.52;;;;
2021/04/17 00:25:16;;;;;;;9.35;7;;;;;;;-0.7;72.81738;95591.83;;;;
2021/04/17 00:26:16;;;;;;;9.35;7;;;;;;;-0.7;72.81738;95591.83;;;;
2021/04/17 00:27:17;;;;;;;9.35;7;;;;;;;-0.7;72.81738;95591.83;;;;
2021/04/17 00:28:18;;;;;;;9.35;7;;;;;;;-0.7;72.81738;95591.83;;;;
2021/04/17 00:29:18;;;;;;;9.35;7;;;;;;;-0.7;72.81738;95591.83;;;;
2021/04/17 00:30:19;;;;;;;9.35;7;;;;;;;-0.7;72.81738;95591.83;;;;
2021/04/17 00:31:21;;;;;;;9.35;7;;;;;;;-0.7;72.81738;95591.83;;;;
2021/04/17 00:32:21;;;;;;;9.35;7;;;;;;;-0.7;72.81738;95591.83;;;;
2021/04/17 00:33:22;;;;;;;9.35;7;;;;;;;-0.7;72.81738;95591.83;;;;
2021/04/17 00:34:23;;;;;;;9.35;7;;;;;;;-0.7;72.81738;95591.83;;;;
2021/04/17 00:35:24;;;;;;;10.9;7.950001;;;;;;;-0.69;73.0498;95595.26;;;;
2021/04/17 00:36:24;;;;;;;10.9;7.950001;;;;;;;-0.69;73.0498;95595.26;;;;
2021/04/17 00:37:25;;;;;;;10.9;7.950001;;;;;;;-0.69;73.0498;95595.26;;;;
2021/04/17 00:38:25;;;;;;;10.9;7.950001;;;;;;;-0.69;73.0498;95595.26;;;;
2021/04/17 00:39:26;;;;;;;10.9;7.950001;;;;;;;-0.69;73.0498;95595.26;;;;
2021/04/17 00:40:27;;;;;;;10.9;7.950001;;;;;;;-0.69;73.0498;95595.26;;;;
2021/04/17 00:41:28;;;;;;;10.9;7.950001;;;;;;;-0.69;73.0498;95595.26;;;;
2021/04/17 00:42:28;;;;;;;10.9;7.950001;;;;;;;-0.69;73.0498;95595.26;;;;
2021/04/17 00:43:29;;;;;;;10.9;7.950001;;;;;;;-0.69;73.0498;95595.26;;;;
2021/04/17 00:44:30;;;;;;;10.9;7.950001;;;;;;;-0.69;73.0498;95595.26;;;;
2021/04/17 00:45:31;;;;;;;10.9;7.950001;;;;;;;-0.69;73.0498;95595.26;;;;
2021/04/17 00:46:32;;;;;;;9.750001;6.750001;;;;;;;-0.52;73.2666;95574.42;;;;
2021/04/17 00:47:33;;;;;;;9.750001;6.750001;;;;;;;-0.52;73.2666;95574.42;;;;
2021/04/17 00:48:34;;;;;;;9.750001;6.750001;;;;;;;-0.52;73.2666;95574.42;;;;
2021/04/17 00:49:35;;;;;;;9.750001;6.750001;;;;;;;-0.52;73.2666;95574.42;;;;
2021/04/17 00:50:35;;;;;;;9.750001;6.750001;;;;;;;-0.52;73.2666;95574.42;;;;
2021/04/17 00:51:36;;;;;;;9.750001;6.750001;;;;;;;-0.52;73.2666;95574.42;;;;
2021/04/17 00:52:36;;;;;;;9.750001;6.750001;;;;;;;-0.52;73.2666;95574.42;;;;
2021/04/17 00:53:39;;;;;;;9.750001;6.750001;;;;;;;-0.52;73.2666;95574.42;;;;
2021/04/17 00:54:40;;;;;;;9.750001;6.750001;;;;;;;-0.52;73.2666;95574.42;;;;
2021/04/17 00:55:40;;;;;;;9.750001;6.750001;;;;;;;-0.52;73.2666;95574.42;;;;
2021/04/17 00:56:41;;;;;;;10.7;7.35;;;;;;;-0.21;73.26855;95565.37;;;;
2021/04/17 00:57:41;;;;;;;10.7;7.35;;;;;;;-0.21;73.26855;95565.37;;;;
2021/04/17 00:58:42;;;;;;;10.7;7.35;;;;;;;-0.21;73.26855;95565.37;;;;
2021/04/17 00:59:43;;;;;;;10.7;7.35;;;;;;;-0.21;73.26855;95565.37;;;;
2021/04/17 01:00:43;;;;;;;10.7;7.35;;;;;;;-0.21;73.26855;95565.37;;;;
2021/04/17 01:01:44;;;;;;;10.7;7.35;;;;;;;-0.21;73.26855;95565.37;;;;
2021/04/17 01:02:45;;;;;;;10.7;7.35;;;;;;;-0.21;73.26855;95565.37;;;;
2021/04/17 01:03:53;;;;;;;10.7;7.35;;;;;;;-0.21;73.26855;95565.37;;;;
2021/04/17 01:04:57;;;;;;;10.7;7.35;;;;;;;-0.21;73.26855;95565.37;;;;
2021/04/17 01:06:00;;;;;;;10.7;7.35;;;;;;;-0.21;73.26855;95565.37;;;;
2021/04/17 01:07:05;;;;;;;10.7;7.35;;;;;;;-0.21;73.26855;95565.37;;;;
2021/04/17 01:08:10;;;;;;;10.65;7.549999;;;;;;;-0.09;73.22461;95560.11;;;;
2021/04/17 01:09:22;;;;;;;10.65;7.549999;;;;;;;-0.09;73.22461;95560.11;;;;
2021/04/17 01:10:28;;;;;;;10.65;7.549999;;;;;;;-0.09;73.22461;95560.11;;;;
2021/04/17 01:11:34;;;;;;;10.65;7.549999;;;;;;;-0.09;73.22461;95560.11;;;;
2021/04/17 01:12:40;;;;;;;10.65;7.549999;;;;;;;-0.09;73.22461;95560.11;;;;
2021/04/17 01:13:44;;;;;;;10.65;7.549999;;;;;;;-0.09;73.22461;95560.11;;;;
2021/04/17 01:14:45;;;;;;;10.65;7.549999;;;;;;;-0.09;73.22461;95560.11;;;;
2021/04/17 01:15:49;;;;;;;10.65;7.549999;;;;;;;-0.09;73.22461;95560.11;;;;
2021/04/17 01:16:50;;;;;;;10.65;7.549999;;;;;;;-0.09;73.22461;95560.11;;;;
2021/04/17 01:17:52;;;;;;;9.950001;7.1;;;;;;;-0.03;73.43457;95551.05;;;;
2021/04/17 01:18:55;;;;;;;9.950001;7.1;;;;;;;-0.03;73.43457;95551.05;;;;
2021/04/17 01:19:57;;;;;;;9.950001;7.1;;;;;;;-0.03;73.43457;95551.05;;;;
2021/04/17 01:21:08;;;;;;;9.950001;7.1;;;;;;;-0.03;73.43457;95551.05;;;;
2021/04/17 01:22:09;;;;;;;9.950001;7.1;;;;;;;-0.03;73.43457;95551.05;;;;
2021/04/17 01:23:12;;;;;;;9.950001;7.1;;;;;;;-0.03;73.43457;95551.05;;;;
2021/04/17 01:24:18;;;;;;;9.950001;7.1;;;;;;;-0.03;73.43457;95551.05;;;;
2021/04/17 01:25:21;;;;;;;9.950001;7.1;;;;;;;-0.03;73.43457;95551.05;;;;
2021/04/17 01:26:25;;;;;;;9.950001;7.1;;;;;;;-0.03;73.43457;95551.05;;;;
2021/04/17 01:27:26;;;;;;;9.950001;7.1;;;;;;;-0.03;73.43457;95551.05;;;;
2021/04/17 01:28:27;;;;;;;9.450001;6.5;;;;;;;0.05;73.51074;95547.08;;;;
2021/04/17 01:29:33;;;;;;;9.450001;6.5;;;;;;;0.05;73.51074;95547.08;;;;
2021/04/17 01:30:35;;;;;;;9.450001;6.5;;;;;;;0.05;73.51074;95547.08;;;;
2021/04/17 01:31:36;;;;;;;9.450001;6.5;;;;;;;0.05;73.51074;95547.08;;;;
2021/04/17 01:32:38;;;;;;;9.450001;6.5;;;;;;;0.05;73.51074;95547.08;;;;
2021/04/17 01:33:39;;;;;;;9.450001;6.5;;;;;;;0.05;73.51074;95547.08;;;;
2021/04/17 01:34:43;;;;;;;9.450001;6.5;;;;;;;0.05;73.51074;95547.08;;;;
2021/04/17 01:35:44;;;;;;;9.450001;6.5;;;;;;;0.05;73.51074;95547.08;;;;
2021/04/17 01:36:47;;;;;;;9.450001;6.5;;;;;;;0.05;73.51074;95547.08;;;;
2021/04/17 01:37:48;;;;;;;9.450001;6.5;;;;;;;0.05;73.51074;95547.08;;;;
2021/04/17 01:39:12;;;;;;;9.25;6.699999;;;;;;;0.08;73.67188;95546.73;;;;
2021/04/17 01:40:15;;;;;;;9.25;6.699999;;;;;;;0.08;73.67188;95546.73;;;;
2021/04/17 01:41:17;;;;;;;9.25;6.699999;;;;;;;0.08;73.67188;95546.73;;;;
2021/04/17 01:42:20;;;;;;;9.25;6.699999;;;;;;;0.08;73.67188;95546.73;;;;
2021/04/17 01:43:22;;;;;;;9.25;6.699999;;;;;;;0.08;73.67188;95546.73;;;;
2021/04/17 01:44:24;;;;;;;9.25;6.699999;;;;;;;0.08;73.67188;95546.73;;;;
2021/04/17 01:45:28;;;;;;;9.25;6.699999;;;;;;;0.08;73.67188;95546.73;;;;
2021/04/17 01:46:31;;;;;;;9.25;6.699999;;;;;;;0.08;73.67188;95546.73;;;;
2021/04/17 01:47:35;;;;;;;9.25;6.699999;;;;;;;0.08;73.67188;95546.73;;;;
2021/04/17 01:48:37;;;;;;;9.25;6.699999;;;;;;;0.08;73.67188;95546.73;;;;
2021/04/17 01:49:38;;;;;;;9.25;6.699999;;;;;;;0.08;73.67188;95546.73;;;;
2021/04/17 01:50:42;;;;;;;11.5;8.000001;;;;;;;0.07;73.83691;95547.24;;;;
2021/04/17 01:51:45;;;;;;;11.5;8.000001;;;;;;;0.07;73.83691;95547.24;;;;
2021/04/17 01:52:47;;;;;;;11.5;8.000001;;;;;;;0.07;73.83691;95547.24;;;;
2021/04/17 01:53:49;;;;;;;11.5;8.000001;;;;;;;0.07;73.83691;95547.24;;;;
2021/04/17 01:54:50;;;;;;;11.5;8.000001;;;;;;;0.07;73.83691;95547.24;;;;
2021/04/17 01:55:55;;;;;;;11.5;8.000001;;;;;;;0.07;73.83691;95547.24;;;;
2021/04/17 01:56:58;;;;;;;11.5;8.000001;;;;;;;0.07;73.83691;95547.24;;;;
2021/04/17 01:58:02;;;;;;;11.5;8.000001;;;;;;;0.07;73.83691;95547.24;;;;
2021/04/17 01:59:04;;;;;;;11.5;8.000001;;;;;;;0.07;73.83691;95547.24;;;;
2021/04/17 02:00:06;;;;;;;11.5;8.000001;;;;;;;0.07;73.83691;95547.24;;;;
2021/04/17 02:01:08;;;;;;;12.05;8.699999;;;;;;;0.05;74.00098;95542.19;;;;
2021/04/17 02:02:09;;;;;;;12.05;8.699999;;;;;;;0.05;74.00098;95542.19;;;;
2021/04/17 02:03:09;;;;;;;12.05;8.699999;;;;;;;0.05;74.00098;95542.19;;;;
2021/04/17 02:04:10;;;;;;;12.05;8.699999;;;;;;;0.05;74.00098;95542.19;;;;
2021/04/17 02:05:11;;;;;;;12.05;8.699999;;;;;;;0.05;74.00098;95542.19;;;;
2021/04/17 02:06:13;;;;;;;12.05;8.699999;;;;;;;0.05;74.00098;95542.19;;;;
2021/04/17 02:07:14;;;;;;;12.05;8.699999;;;;;;;0.05;74.00098;95542.19;;;;
2021/04/17 02:08:15;;;;;;;12.05;8.699999;;;;;;;0.05;74.00098;95542.19;;;;
2021/04/17 02:09:16;;;;;;;12.05;8.699999;;;;;;;0.05;74.00098;95542.19;;;;
2021/04/17 02:10:17;;;;;;;12.05;8.699999;;;;;;;0.05;74.00098;95542.19;;;;
2021/04/17 02:11:17;;;;;;;10.9;7.85;;;;;;;0.09;74.13281;95536.05;;;;
2021/04/17 02:12:18;;;;;;;10.9;7.85;;;;;;;0.09;74.13281;95536.05;;;;
2021/04/17 02:13:18;;;;;;;10.9;7.85;;;;;;;0.09;74.13281;95536.05;;;;
2021/04/17 02:14:20;;;;;;;10.9;7.85;;;;;;;0.09;74.13281;95536.05;;;;
2021/04/17 02:15:20;;;;;;;10.9;7.85;;;;;;;0.09;74.13281;95536.05;;;;
2021/04/17 02:16:21;;;;;;;10.9;7.85;;;;;;;0.09;74.13281;95536.05;;;;
2021/04/17 02:17:28;;;;;;;10.9;7.85;;;;;;;0.09;74.13281;95536.05;;;;
2021/04/17 02:18:33;;;;;;;10.9;7.85;;;;;;;0.09;74.13281;95536.05;;;;
2021/04/17 02:19:46;;;;;;;10.9;7.85;;;;;;;0.09;74.13281;95536.05;;;;
2021/04/17 02:20:53;;;;;;;10.9;7.85;;;;;;;0.09;74.13281;95536.05;;;;
2021/04/17 02:22:00;;;;;;;12.25;8.649999;;;;;;;0.1;74.27051;95535.05;;;;
2021/04/17 02:23:02;;;;;;;12.25;8.649999;;;;;;;0.1;74.27051;95535.05;;;;
2021/04/17 02:24:03;;;;;;;12.25;8.649999;;;;;;;0.1;74.27051;95535.05;;;;
2021/04/17 02:25:07;;;;;;;12.25;8.649999;;;;;;;0.1;74.27051;95535.05;;;;
2021/04/17 02:26:09;;;;;;;12.25;8.649999;;;;;;;0.1;74.27051;95535.05;;;;
2021/04/17 02:27:10;;;;;;;12.25;8.649999;;;;;;;0.1;74.27051;95535.05;;;;
2021/04/17 02:28:11;;;;;;;12.25;8.649999;;;;;;;0.1;74.27051;95535.05;;;;
2021/04/17 02:29:12;;;;;;;12.25;8.649999;;;;;;;0.1;74.27051;95535.05;;;;
2021/04/17 02:30:12;;;;;;;12.25;8.649999;;;;;;;0.1;74.27051;95535.05;;;;
2021/04/17 02:31:14;;;;;;;12.25;8.649999;;;;;;;0.1;74.27051;95535.05;;;;
2021/04/17 02:32:14;;;;;;;12.25;8.649999;;;;;;;0.1;74.27051;95535.05;;;;
2021/04/17 02:33:16;;;;;;;12.55;8.050002;;;;;;;0.11;74.43945;95520.79;;;;
2021/04/17 02:34:16;;;;;;;12.55;8.050002;;;;;;;0.11;74.43945;95520.79;;;;
2021/04/17 02:35:19;;;;;;;12.55;8.050002;;;;;;;0.11;74.43945;95520.79;;;;
2021/04/17 02:36:19;;;;;;;12.55;8.050002;;;;;;;0.11;74.43945;95520.79;;;;
2021/04/17 02:37:20;;;;;;;12.55;8.050002;;;;;;;0.11;74.43945;95520.79;;;;
2021/04/17 02:38:20;;;;;;;12.55;8.050002;;;;;;;0.11;74.43945;95520.79;;;;
2021/04/17 02:39:21;;;;;;;12.55;8.050002;;;;;;;0.11;74.43945;95520.79;;;;
2021/04/17 02:40:22;;;;;;;12.55;8.050002;;;;;;;0.11;74.43945;95520.79;;;;
2021/04/17 02:41:22;;;;;;;12.55;8.050002;;;;;;;0.11;74.43945;95520.79;;;;
2021/04/17 02:42:23;;;;;;;12.55;8.050002;;;;;;;0.11;74.43945;95520.79;;;;
2021/04/17 02:43:23;;;;;;;11.4;8.150001;;;;;;;0.1;74.5752;95521.28;;;;
2021/04/17 02:44:24;;;;;;;11.4;8.150001;;;;;;;0.1;74.5752;95521.28;;;;
2021/04/17 02:45:25;;;;;;;11.4;8.150001;;;;;;;0.1;74.5752;95521.28;;;;
2021/04/17 02:46:25;;;;;;;11.4;8.150001;;;;;;;0.1;74.5752;95521.28;;;;
2021/04/17 02:47:26;;;;;;;11.4;8.150001;;;;;;;0.1;74.5752;95521.28;;;;
2021/04/17 02:48:26;;;;;;;11.4;8.150001;;;;;;;0.1;74.5752;95521.28;;;;
2021/04/17 02:49:27;;;;;;;11.4;8.150001;;;;;;;0.1;74.5752;95521.28;;;;
2021/04/17 02:50:27;;;;;;;11.4;8.150001;;;;;;;0.1;74.5752;95521.28;;;;
2021/04/17 02:51:28;;;;;;;11.4;8.150001;;;;;;;0.1;74.5752;95521.28;;;;
2021/04/17 02:52:28;;;;;;;11.4;8.150001;;;;;;;0.1;74.5752;95521.28;;;;
2021/04/17 02:53:29;;;;;;;11.4;8.150001;;;;;;;0.1;74.5752;95521.28;;;;
2021/04/17 02:54:30;;;;;;;10.8;7.5;;;;;;;-0.01;74.71191;95519.37;;;;
2021/04/17 02:55:31;;;;;;;10.8;7.5;;;;;;;-0.01;74.71191;95519.37;;;;
2021/04/17 02:56:31;;;;;;;10.8;7.5;;;;;;;-0.01;74.71191;95519.37;;;;
2021/04/17 02:57:32;;;;;;;10.8;7.5;;;;;;;-0.01;74.71191;95519.37;;;;
2021/04/17 02:58:32;;;;;;;10.8;7.5;;;;;;;-0.01;74.71191;95519.37;;;;
2021/04/17 02:59:33;;;;;;;10.8;7.5;;;;;;;-0.01;74.71191;95519.37;;;;
2021/04/17 03:00:34;;;;;;;10.8;7.5;;;;;;;-0.01;74.71191;95519.37;;;;
2021/04/17 03:01:34;;;;;;;10.8;7.5;;;;;;;-0.01;74.71191;95519.37;;;;
2021/04/17 03:02:35;;;;;;;10.8;7.5;;;;;;;-0.01;74.71191;95519.37;;;;
2021/04/17 03:03:36;;;;;;;10.8;7.5;;;;;;;-0.01;74.71191;95519.37;;;;
2021/04/17 03:04:36;;;;;;;11.6;8.000002;;;;;;;-0.07;75.0752;95509;;;;
2021/04/17 03:05:37;;;;;;;11.6;8.000002;;;;;;;-0.07;75.0752;95509;;;;
2021/04/17 03:06:37;;;;;;;11.6;8.000002;;;;;;;-0.07;75.0752;95509;;;;
2021/04/17 03:07:38;;;;;;;11.6;8.000002;;;;;;;-0.07;75.0752;95509;;;;
2021/04/17 03:08:39;;;;;;;11.6;8.000002;;;;;;;-0.07;75.0752;95509;;;;
2021/04/17 03:09:39;;;;;;;11.6;8.000002;;;;;;;-0.07;75.0752;95509;;;;
2021/04/17 03:10:40;;;;;;;11.6;8.000002;;;;;;;-0.07;75.0752;95509;;;;
2021/04/17 03:11:41;;;;;;;11.6;8.000002;;;;;;;-0.07;75.0752;95509;;;;
2021/04/17 03:12:41;;;;;;;11.6;8.000002;;;;;;;-0.07;75.0752;95509;;;;
2021/04/17 03:13:42;;;;;;;11.6;8.000002;;;;;;;-0.07;75.0752;95509;;;;
2021/04/17 03:14:43;;;;;;;11.6;8.000002;;;;;;;-0.07;75.0752;95509;;;;
2021/04/17 03:15:43;;;;;;;11.3;8.25;;;;;;;0;75.31836;95504.19;;;;
2021/04/17 03:16:44;;;;;;;11.3;8.25;;;;;;;0;75.31836;95504.19;;;;
2021/04/17 03:17:45;;;;;;;11.3;8.25;;;;;;;0;75.31836;95504.19;;;;
2021/04/17 03:18:45;;;;;;;11.3;8.25;;;;;;;0;75.31836;95504.19;;;;
2021/04/17 03:19:46;;;;;;;11.3;8.25;;;;;;;0;75.31836;95504.19;;;;
2021/04/17 03:20:47;;;;;;;11.3;8.25;;;;;;;0;75.31836;95504.19;;;;
2021/04/17 03:21:47;;;;;;;11.3;8.25;;;;;;;0;75.31836;95504.19;;;;
2021/04/17 03:22:48;;;;;;;11.3;8.25;;;;;;;0;75.31836;95504.19;;;;
2021/04/17 03:23:49;;;;;;;11.3;8.25;;;;;;;0;75.31836;95504.19;;;;
2021/04/17 03:24:49;;;;;;;11.3;8.25;;;;;;;0;75.31836;95504.19;;;;
2021/04/17 03:25:50;;;;;;;11.3;8.25;;;;;;;0;75.31836;95504.19;;;;
2021/04/17 03:26:50;;;;;;;12.8;7.75;;;;;;;0.19;75.4248;95497.72;;;;
2021/04/17 03:27:51;;;;;;;12.8;7.75;;;;;;;0.19;75.4248;95497.72;;;;
2021/04/17 03:28:51;;;;;;;12.8;7.75;;;;;;;0.19;75.4248;95497.72;;;;
2021/04/17 03:29:52;;;;;;;12.8;7.75;;;;;;;0.19;75.4248;95497.72;;;;
2021/04/17 03:30:52;;;;;;;12.8;7.75;;;;;;;0.19;75.4248;95497.72;;;;
2021/04/17 03:31:53;;;;;;;12.8;7.75;;;;;;;0.19;75.4248;95497.72;;;;
2021/04/17 03:32:54;;;;;;;12.8;7.75;;;;;;;0.19;75.4248;95497.72;;;;
2021/04/17 03:33:56;;;;;;;12.8;7.75;;;;;;;0.19;75.4248;95497.72;;;;
2021/04/17 03:34:56;;;;;;;12.8;7.75;;;;;;;0.19;75.4248;95497.72;;;;
2021/04/17 03:35:57;;;;;;;12.8;7.75;;;;;;;0.19;75.4248;95497.72;;;;
2021/04/17 03:36:58;;;;;;;13.45;9.15;;;;;;;0.32;75.30078;95496.3;;;;
2021/04/17 03:37:59;;;;;;;13.45;9.15;;;;;;;0.32;75.30078;95496.3;;;;
2021/04/17 03:39:00;;;;;;;13.45;9.15;;;;;;;0.32;75.30078;95496.3;;;;
2021/04/17 03:40:01;;;;;;;13.45;9.15;;;;;;;0.32;75.30078;95496.3;;;;
2021/04/17 03:41:04;;;;;;;13.45;9.15;;;;;;;0.32;75.30078;95496.3;;;;
2021/04/17 03:42:04;;;;;;;13.45;9.15;;;;;;;0.32;75.30078;95496.3;;;;
2021/04/17 03:43:05;;;;;;;13.45;9.15;;;;;;;0.32;75.30078;95496.3;;;;
2021/04/17 03:44:06;;;;;;;13.45;9.15;;;;;;;0.32;75.30078;95496.3;;;;
2021/04/17 03:45:06;;;;;;;13.45;9.15;;;;;;;0.32;75.30078;95496.3;;;;
2021/04/17 03:46:09;;;;;;;13.45;9.15;;;;;;;0.32;75.30078;95496.3;;;;
2021/04/17 03:47:09;;;;;;;13.45;9.15;;;;;;;0.32;75.30078;95496.3;;;;
2021/04/17 03:48:10;;;;;;;13.05;8.7;;;;;;;0.32;75.42578;95491.9;;;;
2021/04/17 03:49:10;;;;;;;13.05;8.7;;;;;;;0.32;75.42578;95491.9;;;;
2021/04/17 03:50:11;;;;;;;13.05;8.7;;;;;;;0.32;75.42578;95491.9;;;;
2021/04/17 03:51:13;;;;;;;13.05;8.7;;;;;;;0.32;75.42578;95491.9;;;;
2021/04/17 03:52:14;;;;;;;13.05;8.7;;;;;;;0.32;75.42578;95491.9;;;;
2021/04/17 03:53:14;;;;;;;13.05;8.7;;;;;;;0.32;75.42578;95491.9;;;;
2021/04/17 03:54:15;;;;;;;13.05;8.7;;;;;;;0.32;75.42578;95491.9;;;;
2021/04/17 03:55:16;;;;;;;13.05;8.7;;;;;;;0.32;75.42578;95491.9;;;;
2021/04/17 03:56:17;;;;;;;13.05;8.7;;;;;;;0.32;75.42578;95491.9;;;;
2021/04/17 03:57:18;;;;;;;13.05;8.7;;;;;;;0.32;75.42578;95491.9;;;;
2021/04/17 03:58:18;;;;;;;12.6;8.9;;;;;;;0.39;75.66895;95484.91;;;;
2021/04/17 03:59:19;;;;;;;12.6;8.9;;;;;;;0.39;75.66895;95484.91;;;;
2021/04/17 04:00:20;;;;;;;12.6;8.9;;;;;;;0.39;75.66895;95484.91;;;;
2021/04/17 04:01:21;;;;;;;12.6;8.9;;;;;;;0.39;75.66895;95484.91;;;;
2021/04/17 04:02:22;;;;;;;12.6;8.9;;;;;;;0.39;75.66895;95484.91;;;;
2021/04/17 04:03:22;;;;;;;12.6;8.9;;;;;;;0.39;75.66895;95484.91;;;;
2021/04/17 04:04:23;;;;;;;12.6;8.9;;;;;;;0.39;75.66895;95484.91;;;;
2021/04/17 04:05:23;;;;;;;12.6;8.9;;;;;;;0.39;75.66895;95484.91;;;;
2021/04/17 04:06:24;;;;;;;12.6;8.9;;;;;;;0.39;75.66895;95484.91;;;;
2021/04/17 04:07:25;;;;;;;12.6;8.9;;;;;;;0.39;75.66895;95484.91;;;;
2021/04/17 04:08:26;;;;;;;12.6;8.9;;;;;;;0.39;75.66895;95484.91;;;;
2021/04/17 04:09:27;;;;;;;15.35;9.85;;;;;;;0.45;75.72266;95504.16;;;;
2021/04/17 04:10:27;;;;;;;15.35;9.85;;;;;;;0.45;75.72266;95504.16;;;;
2021/04/17 04:11:28;;;;;;;15.35;9.85;;;;;;;0.45;75.72266;95504.16;;;;
2021/04/17 04:12:28;;;;;;;15.35;9.85;;;;;;;0.45;75.72266;95504.16;;;;
2021/04/17 04:13:29;;;;;;;15.35;9.85;;;;;;;0.45;75.72266;95504.16;;;;
2021/04/17 04:14:29;;;;;;;15.35;9.85;;;;;;;0.45;75.72266;95504.16;;;;
2021/04/17 04:15:30;;;;;;;15.35;9.85;;;;;;;0.45;75.72266;95504.16;;;;
2021/04/17 04:16:31;;;;;;;15.35;9.85;;;;;;;0.45;75.72266;95504.16;;;;
2021/04/17 04:17:31;;;;;;;15.35;9.85;;;;;;;0.45;75.72266;95504.16;;;;
2021/04/17 04:18:32;;;;;;;15.35;9.85;;;;;;;0.45;75.72266;95504.16;;;;
2021/04/17 04:19:32;;;;;;;15.15;10.2;;;;;;;0.49;75.88574;95514.26;;;;
2021/04/17 04:20:33;;;;;;;15.15;10.2;;;;;;;0.49;75.88574;95514.26;;;;
2021/04/17 04:21:33;;;;;;;15.15;10.2;;;;;;;0.49;75.88574;95514.26;;;;
2021/04/17 04:22:34;;;;;;;15.15;10.2;;;;;;;0.49;75.88574;95514.26;;;;
2021/04/17 04:23:36;;;;;;;15.15;10.2;;;;;;;0.49;75.88574;95514.26;;;;
2021/04/17 04:24:36;;;;;;;15.15;10.2;;;;;;;0.49;75.88574;95514.26;;;;
2021/04/17 04:25:37;;;;;;;15.15;10.2;;;;;;;0.49;75.88574;95514.26;;;;
2021/04/17 04:26:37;;;;;;;15.15;10.2;;;;;;;0.49;75.88574;95514.26;;;;
2021/04/17 04:27:39;;;;;;;15.15;10.2;;;;;;;0.49;75.88574;95514.26;;;;
2021/04/17 04:28:40;;;;;;;15.15;10.2;;;;;;;0.49;75.88574;95514.26;;;;
2021/04/17 04:29:41;;;;;;;15.15;10.2;;;;;;;0.49;75.88574;95514.26;;;;
2021/04/17 04:30:41;;;;;;;15;10.25;;;;;;;0.45;75.96289;95516.53;;;;
2021/04/17 04:31:42;;;;;;;15;10.25;;;;;;;0.45;75.96289;95516.53;;;;
2021/04/17 04:32:42;;;;;;;15;10.25;;;;;;;0.45;75.96289;95516.53;;;;
2021/04/17 04:33:43;;;;;;;15;10.25;;;;;;;0.45;75.96289;95516.53;;;;
2021/04/17 04:34:44;;;;;;;15;10.25;;;;;;;0.45;75.96289;95516.53;;;;
2021/04/17 04:35:44;;;;;;;15;10.25;;;;;;;0.45;75.96289;95516.53;;;;
2021/04/17 04:36:45;;;;;;;15;10.25;;;;;;;0.45;75.96289;95516.53;;;;
2021/04/17 04:37:45;;;;;;;15;10.25;;;;;;;0.45;75.96289;95516.53;;;;
2021/04/17 04:38:46;;;;;;;15;10.25;;;;;;;0.45;75.96289;95516.53;;;;
2021/04/17 04:39:47;;;;;;;15;10.25;;;;;;;0.45;75.96289;95516.53;;;;
2021/04/17 04:40:47;;;;;;;14.55;9.999999;;;;;;;0.51;76.41113;95523.81;;;;
2021/04/17 04:41:48;;;;;;;14.55;9.999999;;;;;;;0.51;76.41113;95523.81;;;;
2021/04/17 04:42:48;;;;;;;14.55;9.999999;;;;;;;0.51;76.41113;95523.81;;;;
2021/04/17 04:43:49;;;;;;;14.55;9.999999;;;;;;;0.51;76.41113;95523.81;;;;
2021/04/17 04:44:50;;;;;;;14.55;9.999999;;;;;;;0.51;76.41113;95523.81;;;;
2021/04/17 04:45:50;;;;;;;14.55;9.999999;;;;;;;0.51;76.41113;95523.81;;;;
2021/04/17 04:46:51;;;;;;;14.55;9.999999;;;;;;;0.51;76.41113;95523.81;;;;
2021/04/17 04:47:51;;;;;;;14.55;9.999999;;;;;;;0.51;76.41113;95523.81;;;;
2021/04/17 04:48:52;;;;;;;14.55;9.999999;;;;;;;0.51;76.41113;95523.81;;;;
2021/04/17 04:49:52;;;;;;;14.55;9.999999;;;;;;;0.51;76.41113;95523.81;;;;
2021/04/17 04:50:53;;;;;;;14.55;9.999999;;;;;;;0.51;76.41113;95523.81;;;;
2021/04/17 04:51:53;;;;;;;13.5;8.899999;;;;;;;0.77;76.60352;95518.7;;;;
2021/04/17 04:52:54;;;;;;;13.5;8.899999;;;;;;;0.77;76.60352;95518.7;;;;
2021/04/17 04:53:54;;;;;;;13.5;8.899999;;;;;;;0.77;76.60352;95518.7;;;;
2021/04/17 04:54:55;;;;;;;13.5;8.899999;;;;;;;0.77;76.60352;95518.7;;;;
2021/04/17 04:55:56;;;;;;;13.5;8.899999;;;;;;;0.77;76.60352;95518.7;;;;
2021/04/17 04:56:57;;;;;;;13.5;8.899999;;;;;;;0.77;76.60352;95518.7;;;;
2021/04/17 04:57:57;;;;;;;13.5;8.899999;;;;;;;0.77;76.60352;95518.7;;;;
2021/04/17 04:58:58;;;;;;;13.5;8.899999;;;;;;;0.77;76.60352;95518.7;;;;
2021/04/17 04:59:59;;;;;;;13.5;8.899999;;;;;;;0.77;76.60352;95518.7;;;;
2021/04/17 05:00:59;;;;;;;13.5;8.899999;;;;;;;0.77;76.60352;95518.7;;;;
2021/04/17 05:02:00;;;;;;;16.4;10.65;;;;;;;1.06;76.39453;95522.92;;;;
2021/04/17 05:03:01;;;;;;;16.4;10.65;;;;;;;1.06;76.39453;95522.92;;;;
2021/04/17 05:04:02;;;;;;;16.4;10.65;;;;;;;1.06;76.39453;95522.92;;;;
2021/04/17 05:05:02;;;;;;;16.4;10.65;;;;;;;1.06;76.39453;95522.92;;;;
2021/04/17 05:06:04;;;;;;;16.4;10.65;;;;;;;1.06;76.39453;95522.92;;;;
2021/04/17 05:07:05;;;;;;;16.4;10.65;;;;;;;1.06;76.39453;95522.92;;;;
2021/04/17 05:08:05;;;;;;;16.4;10.65;;;;;;;1.06;76.39453;95522.92;;;;
2021/04/17 05:09:06;;;;;;;16.4;10.65;;;;;;;1.06;76.39453;95522.92;;;;
2021/04/17 05:10:07;;;;;;;16.4;10.65;;;;;;;1.06;76.39453;95522.92;;;;
2021/04/17 05:11:08;;;;;;;16.4;10.65;;;;;;;1.06;76.39453;95522.92;;;;
2021/04/17 05:12:09;;;;;;;16.4;10.65;;;;;;;1.06;76.39453;95522.92;;;;
2021/04/17 05:13:10;;;;;;;16.85;10.65;;;;;;;1.34;76.23535;95531.26;;;;
2021/04/17 05:14:10;;;;;;;16.85;10.65;;;;;;;1.34;76.23535;95531.26;;;;
2021/04/17 05:15:11;;;;;;;16.85;10.65;;;;;;;1.34;76.23535;95531.26;;;;
2021/04/17 05:16:13;;;;;;;16.85;10.65;;;;;;;1.34;76.23535;95531.26;;;;
2021/04/17 05:17:14;;;;;;;16.85;10.65;;;;;;;1.34;76.23535;95531.26;;;;
2021/04/17 05:18:14;;;;;;;16.85;10.65;;;;;;;1.34;76.23535;95531.26;;;;
2021/04/17 05:19:15;;;;;;;16.85;10.65;;;;;;;1.34;76.23535;95531.26;;;;
2021/04/17 05:20:16;;;;;;;16.85;10.65;;;;;;;1.34;76.23535;95531.26;;;;
2021/04/17 05:21:16;;;;;;;16.85;10.65;;;;;;;1.34;76.23535;95531.26;;;;
2021/04/17 05:22:17;;;;;;;16.85;10.65;;;;;;;1.34;76.23535;95531.26;;;;
2021/04/17 05:23:17;;;;;;;16.85;10.65;;;;;;;1.34;76.23535;95531.26;;;;
2021/04/17 05:24:18;;;;;;;17;10.45;;;;;;;1.56;76.14844;95529.16;;;;
2021/04/17 05:25:18;;;;;;;17;10.45;;;;;;;1.56;76.14844;95529.16;;;;
2021/04/17 05:26:19;;;;;;;17;10.45;;;;;;;1.56;76.14844;95529.16;;;;
2021/04/17 05:27:20;;;;;;;17;10.45;;;;;;;1.56;76.14844;95529.16;;;;
2021/04/17 05:28:20;;;;;;;17;10.45;;;;;;;1.56;76.14844;95529.16;;;;
2021/04/17 05:29:21;;;;;;;17;10.45;;;;;;;1.56;76.14844;95529.16;;;;
2021/04/17 05:30:21;;;;;;;17;10.45;;;;;;;1.56;76.14844;95529.16;;;;
2021/04/17 05:31:23;;;;;;;17;10.45;;;;;;;1.56;76.14844;95529.16;;;;
2021/04/17 05:32:24;;;;;;;17;10.45;;;;;;;1.56;76.14844;95529.16;;;;
2021/04/17 05:33:24;;;;;;;17;10.45;;;;;;;1.56;76.14844;95529.16;;;;
2021/04/17 05:34:25;;;;;;;18.05;11;;;;;;;1.86;76.16016;95530.05;;;;
2021/04/17 05:35:25;;;;;;;18.05;11;;;;;;;1.86;76.16016;95530.05;;;;
2021/04/17 05:36:26;;;;;;;18.05;11;;;;;;;1.86;76.16016;95530.05;;;;
2021/04/17 05:37:26;;;;;;;18.05;11;;;;;;;1.86;76.16016;95530.05;;;;
2021/04/17 05:38:27;;;;;;;18.05;11;;;;;;;1.86;76.16016;95530.05;;;;
2021/04/17 05:39:28;;;;;;;18.05;11;;;;;;;1.86;76.16016;95530.05;;;;
2021/04/17 05:40:28;;;;;;;18.05;11;;;;;;;1.86;76.16016;95530.05;;;;
2021/04/17 05:41:29;;;;;;;18.05;11;;;;;;;1.86;76.16016;95530.05;;;;
2021/04/17 05:42:29;;;;;;;18.05;11;;;;;;;1.86;76.16016;95530.05;;;;